Impacts TAF Board
For situational awareness. Not to be used for flight planning purposes.
IDs:

KLFT - Lafayette Rgnl, LA, US

Issued at 1437 UTC 23 Sep 2020
Updated at 1609 UTC 23 Sep 2020
Potential Impact None Slight Moderate High
Time1553Z 23/17Z 23/18Z 23/19Z 23/20Z 23/21Z 23/22Z 23/23Z 24/00Z 24/01Z 24/02Z 24/03Z 24/04Z 24/05Z>>
Type OBS PRVL PRVL PRVL PRVL PRVL PRVL PRVL PRVL PRVL PRVL PRVL PRVL PRVL
VIS 10 >6 >6 >6 >6 >6 >6 >6 >6 >6 >6 >6 >6 >6
CIG 16 15 15 15 15 15 15 15 15 15 15 7 7 7
Cover BKN OVC OVC OVC OVC OVC OVC OVC OVC OVC OVC OVC OVC OVC
FltCat MVFR MVFR MVFR MVFR MVFR MVFR MVFR MVFR MVFR MVFR MVFR IFR IFR IFR
WX -- VCTS VCTS VCTS VCTS VCTS VCTS VCTS VCSH VCSH VCSH -- -- --
WDir 120 170 170 170 170 170 170 170 210 210 210 VRB VRB VRB
WSpd 9 12 12 12 12 12 12 12 10 10 10 6 6 6
WGst 17 18 18 18 18 18 18 18 -- -- -- -- -- --
R04/22
XWnd -9 -9 -9 -9 -9 -9 -9 -9 -2 -2 -2 VRB VRB VRB
XGst -17 -14 -14 -14 -14 -14 -14 -14 -- -- -- -- -- --
HWnd 1 -8 -8 -8 -8 -8 -8 -8 -10 -10 -10 VRB VRB VRB
HGst 3 -12 -12 -12 -12 -12 -12 -12 -- -- -- -- -- --
R11/29
XWnd -2 -10 -10 -10 -10 -10 -10 -10 -10 -10 -10 VRB VRB VRB
XGst -3 -16 -16 -16 -16 -16 -16 -16 -- -- -- -- -- --
HWnd 9 6 6 6 6 6 6 6 -2 -2 -2 VRB VRB VRB
HGst 17 9 9 9 9 9 9 9 -- -- -- -- -- --
Raw TAF
KLFT 231437Z 2315/2412 13010KT P6SM VCSH SCT007 SCT015
  FM231700 17012G18KT P6SM VCTS OVC015CB
  FM240000 21010KT P6SM VCSH OVC015
  FM240300 VRB06KT P6SM OVC007
  FM240600 31010KT P6SM BKN007 OVC015


Raw METAR
KLFT 231553Z 12009G17KT 10SM BKN016 BKN021 27/23 A2982 RMK AO2 SLP098 T02720233
KLFT 231543Z 14009G20KT 110V180 10SM BKN016 28/23 A2982 RMK AO2 T02780233
KLFT 231520Z VRB04KT 10SM BKN014 BKN022 BKN028 27/23 A2983 RMK AO2 T02670233
KLFT 231510Z VRB06KT 10SM SCT014 BKN027 27/23 A2982 RMK AO2 T02670233
KLFT 231453Z 12007G16KT 080V140 10SM FEW016 FEW046 26/23 A2983 RMK AO2 SLP100 60002 T02610228 58007
KLFT 231353Z VRB05KT 10SM FEW007 FEW029 24/23 A2984 RMK AO2 SLP105 T02440228

METAR Board
Radar Display
Forecast Discussion
For situational awareness. Not to be used for flight planning purposes.